sensor_id;sensor_type;location;lat;lon;timestamp;temperature;humidity
38746;DHT22;24488;0.000;0.000;2022-07-24T00:01:10;24.30;53.40
38746;DHT22;24488;0.000;0.000;2022-07-24T00:03:35;24.30;53.40
38746;DHT22;24488;0.000;0.000;2022-07-24T00:06:01;24.30;53.00
38746;DHT22;24488;0.000;0.000;2022-07-24T00:08:26;24.40;53.50
38746;DHT22;24488;0.000;0.000;2022-07-24T00:10:52;24.30;53.40
38746;DHT22;24488;0.000;0.000;2022-07-24T00:13:17;24.30;53.50
38746;DHT22;24488;0.000;0.000;2022-07-24T00:15:43;24.30;53.00
38746;DHT22;24488;0.000;0.000;2022-07-24T00:18:09;24.30;53.40
38746;DHT22;24488;0.000;0.000;2022-07-24T00:20:34;24.30;53.40
38746;DHT22;24488;0.000;0.000;2022-07-24T00:23:00;24.30;53.40
38746;DHT22;24488;0.000;0.000;2022-07-24T00:25:25;24.30;53.40
38746;DHT22;24488;0.000;0.000;2022-07-24T00:27:51;24.30;53.40
38746;DHT22;24488;0.000;0.000;2022-07-24T00:30:17;24.30;53.40
38746;DHT22;24488;0.000;0.000;2022-07-24T00:32:42;24.30;53.40
38746;DHT22;24488;0.000;0.000;2022-07-24T00:35:08;24.30;53.40
38746;DHT22;24488;0.000;0.000;2022-07-24T00:37:34;24.30;53.40
38746;DHT22;24488;0.000;0.000;2022-07-24T00:39:59;24.30;53.40
38746;DHT22;24488;0.000;0.000;2022-07-24T00:42:25;24.30;53.40
38746;DHT22;24488;0.000;0.000;2022-07-24T00:44:50;24.30;53.40
38746;DHT22;24488;0.000;0.000;2022-07-24T00:47:16;24.30;53.40
38746;DHT22;24488;0.000;0.000;2022-07-24T00:49:42;24.40;53.50
38746;DHT22;24488;0.000;0.000;2022-07-24T00:52:07;24.30;53.40
38746;DHT22;24488;0.000;0.000;2022-07-24T00:54:33;24.30;53.40
38746;DHT22;24488;0.000;0.000;2022-07-24T00:56:59;24.30;53.40
38746;DHT22;24488;0.000;0.000;2022-07-24T00:59:24;24.30;53.40
38746;DHT22;24488;0.000;0.000;2022-07-24T01:01:50;24.30;53.40
38746;DHT22;24488;0.000;0.000;2022-07-24T01:04:17;24.30;53.40
38746;DHT22;24488;0.000;0.000;2022-07-24T01:06:43;24.30;53.40
38746;DHT22;24488;0.000;0.000;2022-07-24T01:09:08;24.30;53.40
38746;DHT22;24488;0.000;0.000;2022-07-24T01:11:34;24.30;53.40
38746;DHT22;24488;0.000;0.000;2022-07-24T01:14:00;24.30;53.30
38746;DHT22;24488;0.000;0.000;2022-07-24T01:16:26;24.30;53.40
38746;DHT22;24488;0.000;0.000;2022-07-24T01:18:52;24.30;53.40
38746;DHT22;24488;0.000;0.000;2022-07-24T01:21:17;24.30;53.40
38746;DHT22;24488;0.000;0.000;2022-07-24T01:23:43;24.30;53.90
38746;DHT22;24488;0.000;0.000;2022-07-24T01:26:09;24.30;53.40
38746;DHT22;24488;0.000;0.000;2022-07-24T01:28:34;24.30;53.40
38746;DHT22;24488;0.000;0.000;2022-07-24T01:31:01;24.30;53.40
38746;DHT22;24488;0.000;0.000;2022-07-24T01:33:26;24.30;53.40
38746;DHT22;24488;0.000;0.000;2022-07-24T01:35:52;24.30;53.40
38746;DHT22;24488;0.000;0.000;2022-07-24T01:38:18;24.30;53.40
38746;DHT22;24488;0.000;0.000;2022-07-24T01:40:44;24.30;53.40
38746;DHT22;24488;0.000;0.000;2022-07-24T01:43:09;24.30;53.40
38746;DHT22;24488;0.000;0.000;2022-07-24T01:45:35;24.30;53.40
38746;DHT22;24488;0.000;0.000;2022-07-24T01:48:01;24.40;53.40
38746;DHT22;24488;0.000;0.000;2022-07-24T01:50:27;24.30;53.40
38746;DHT22;24488;0.000;0.000;2022-07-24T01:52:52;24.30;53.40
38746;DHT22;24488;0.000;0.000;2022-07-24T01:55:21;24.30;53.40
38746;DHT22;24488;0.000;0.000;2022-07-24T01:57:47;24.30;53.40
38746;DHT22;24488;0.000;0.000;2022-07-24T02:00:13;24.30;53.40
38746;DHT22;24488;0.000;0.000;2022-07-24T02:02:40;24.30;53.40
38746;DHT22;24488;0.000;0.000;2022-07-24T02:05:06;24.30;53.40
38746;DHT22;24488;0.000;0.000;2022-07-24T02:07:32;24.30;53.40
38746;DHT22;24488;0.000;0.000;2022-07-24T02:09:58;24.30;53.40
38746;DHT22;24488;0.000;0.000;2022-07-24T02:12:23;24.40;54.00
38746;DHT22;24488;0.000;0.000;2022-07-24T02:14:49;24.30;53.40
38746;DHT22;24488;0.000;0.000;2022-07-24T02:17:15;24.40;53.40
38746;DHT22;24488;0.000;0.000;2022-07-24T02:19:40;24.30;53.40
38746;DHT22;24488;0.000;0.000;2022-07-24T02:22:06;24.30;53.40
38746;DHT22;24488;0.000;0.000;2022-07-24T02:24:32;24.30;53.40
38746;DHT22;24488;0.000;0.000;2022-07-24T02:26:57;24.30;53.40
38746;DHT22;24488;0.000;0.000;2022-07-24T02:29:23;24.30;53.40
38746;DHT22;24488;0.000;0.000;2022-07-24T02:31:48;24.30;53.40
38746;DHT22;24488;0.000;0.000;2022-07-24T02:34:14;24.40;53.40
38746;DHT22;24488;0.000;0.000;2022-07-24T02:36:39;24.30;53.40
38746;DHT22;24488;0.000;0.000;2022-07-24T02:39:05;24.30;53.40
38746;DHT22;24488;0.000;0.000;2022-07-24T02:41:31;24.30;53.40
38746;DHT22;24488;0.000;0.000;2022-07-24T02:43:56;24.30;53.40
38746;DHT22;24488;0.000;0.000;2022-07-24T02:46:22;24.30;53.30
38746;DHT22;24488;0.000;0.000;2022-07-24T02:48:47;24.30;53.30
38746;DHT22;24488;0.000;0.000;2022-07-24T02:51:13;24.30;53.30
38746;DHT22;24488;0.000;0.000;2022-07-24T02:53:38;24.30;53.30
38746;DHT22;24488;0.000;0.000;2022-07-24T02:56:04;24.30;52.90
38746;DHT22;24488;0.000;0.000;2022-07-24T02:58:30;24.30;53.40
38746;DHT22;24488;0.000;0.000;2022-07-24T03:00:56;24.30;53.30
38746;DHT22;24488;0.000;0.000;2022-07-24T03:03:21;24.30;53.40
38746;DHT22;24488;0.000;0.000;2022-07-24T03:05:47;24.30;53.40
38746;DHT22;24488;0.000;0.000;2022-07-24T03:08:12;24.30;53.30
38746;DHT22;24488;0.000;0.000;2022-07-24T03:10:38;24.30;53.40
38746;DHT22;24488;0.000;0.000;2022-07-24T03:13:03;24.30;53.40
38746;DHT22;24488;0.000;0.000;2022-07-24T03:15:30;24.30;53.40
38746;DHT22;24488;0.000;0.000;2022-07-24T03:17:56;24.40;53.50
38746;DHT22;24488;0.000;0.000;2022-07-24T03:20:22;24.30;53.40
38746;DHT22;24488;0.000;0.000;2022-07-24T03:22:52;24.30;53.40
38746;DHT22;24488;0.000;0.000;2022-07-24T03:25:18;24.30;53.40
38746;DHT22;24488;0.000;0.000;2022-07-24T03:27:43;24.30;53.40
38746;DHT22;24488;0.000;0.000;2022-07-24T03:30:11;24.30;53.40
38746;DHT22;24488;0.000;0.000;2022-07-24T03:32:36;24.30;53.40
38746;DHT22;24488;0.000;0.000;2022-07-24T03:35:02;24.30;53.40
38746;DHT22;24488;0.000;0.000;2022-07-24T03:37:28;24.30;53.40
38746;DHT22;24488;0.000;0.000;2022-07-24T03:39:54;24.30;53.40
38746;DHT22;24488;0.000;0.000;2022-07-24T03:42:19;24.30;53.40
38746;DHT22;24488;0.000;0.000;2022-07-24T03:44:45;24.30;53.40
38746;DHT22;24488;0.000;0.000;2022-07-24T03:47:10;24.30;53.40
38746;DHT22;24488;0.000;0.000;2022-07-24T03:49:36;24.30;53.40
38746;DHT22;24488;0.000;0.000;2022-07-24T03:52:02;24.30;53.40
38746;DHT22;24488;0.000;0.000;2022-07-24T03:54:28;24.30;53.40
38746;DHT22;24488;0.000;0.000;2022-07-24T03:56:53;24.30;53.40
38746;DHT22;24488;0.000;0.000;2022-07-24T03:59:19;24.30;53.30
38746;DHT22;24488;0.000;0.000;2022-07-24T04:01:44;24.30;53.30
38746;DHT22;24488;0.000;0.000;2022-07-24T04:04:10;24.30;53.40
38746;DHT22;24488;0.000;0.000;2022-07-24T04:06:36;24.30;53.40
38746;DHT22;24488;0.000;0.000;2022-07-24T04:09:03;24.30;53.40
38746;DHT22;24488;0.000;0.000;2022-07-24T04:11:29;24.30;53.40
38746;DHT22;24488;0.000;0.000;2022-07-24T04:13:55;24.30;53.40
38746;DHT22;24488;0.000;0.000;2022-07-24T04:16:21;24.30;53.30
38746;DHT22;24488;0.000;0.000;2022-07-24T04:18:47;24.30;53.40
38746;DHT22;24488;0.000;0.000;2022-07-24T04:21:12;24.30;53.40
38746;DHT22;24488;0.000;0.000;2022-07-24T04:23:38;24.30;53.40
38746;DHT22;24488;0.000;0.000;2022-07-24T04:26:03;24.30;53.40
38746;DHT22;24488;0.000;0.000;2022-07-24T04:28:30;24.30;53.40
38746;DHT22;24488;0.000;0.000;2022-07-24T04:30:55;24.30;53.40
38746;DHT22;24488;0.000;0.000;2022-07-24T04:33:21;24.30;53.40
38746;DHT22;24488;0.000;0.000;2022-07-24T04:35:47;24.30;53.30
38746;DHT22;24488;0.000;0.000;2022-07-24T04:38:12;24.30;53.30
38746;DHT22;24488;0.000;0.000;2022-07-24T04:40:38;24.30;53.30
38746;DHT22;24488;0.000;0.000;2022-07-24T04:43:04;24.30;53.40
38746;DHT22;24488;0.000;0.000;2022-07-24T04:45:29;24.30;53.30
38746;DHT22;24488;0.000;0.000;2022-07-24T04:47:55;24.30;53.30
38746;DHT22;24488;0.000;0.000;2022-07-24T04:50:20;24.30;53.40
38746;DHT22;24488;0.000;0.000;2022-07-24T04:52:46;24.30;53.40
38746;DHT22;24488;0.000;0.000;2022-07-24T04:55:12;24.30;53.40
38746;DHT22;24488;0.000;0.000;2022-07-24T04:57:38;24.30;53.40
38746;DHT22;24488;0.000;0.000;2022-07-24T05:00:05;24.30;53.40
38746;DHT22;24488;0.000;0.000;2022-07-24T05:02:32;24.30;53.30
38746;DHT22;24488;0.000;0.000;2022-07-24T05:04:58;24.30;53.40
38746;DHT22;24488;0.000;0.000;2022-07-24T05:07:23;24.30;52.90
38746;DHT22;24488;0.000;0.000;2022-07-24T05:09:49;24.30;53.30
38746;DHT22;24488;0.000;0.000;2022-07-24T05:12:14;24.30;53.30
38746;DHT22;24488;0.000;0.000;2022-07-24T05:14:40;24.30;53.30
38746;DHT22;24488;0.000;0.000;2022-07-24T05:17:06;24.30;53.30
38746;DHT22;24488;0.000;0.000;2022-07-24T05:19:31;24.30;53.30
38746;DHT22;24488;0.000;0.000;2022-07-24T05:21:57;24.30;53.30
38746;DHT22;24488;0.000;0.000;2022-07-24T05:24:25;24.30;53.40
38746;DHT22;24488;0.000;0.000;2022-07-24T05:26:51;24.30;53.50
38746;DHT22;24488;0.000;0.000;2022-07-24T05:29:17;24.30;53.40
38746;DHT22;24488;0.000;0.000;2022-07-24T05:31:42;24.30;53.30
38746;DHT22;24488;0.000;0.000;2022-07-24T05:34:08;24.30;53.30
38746;DHT22;24488;0.000;0.000;2022-07-24T05:36:34;24.30;53.30
38746;DHT22;24488;0.000;0.000;2022-07-24T05:38:59;24.30;53.30
38746;DHT22;24488;0.000;0.000;2022-07-24T05:41:25;24.30;53.40
38746;DHT22;24488;0.000;0.000;2022-07-24T05:43:50;24.30;53.30
38746;DHT22;24488;0.000;0.000;2022-07-24T05:46:16;24.30;53.30
38746;DHT22;24488;0.000;0.000;2022-07-24T05:48:41;24.30;53.40
38746;DHT22;24488;0.000;0.000;2022-07-24T05:51:07;24.30;53.30
38746;DHT22;24488;0.000;0.000;2022-07-24T05:53:32;24.30;53.30
38746;DHT22;24488;0.000;0.000;2022-07-24T05:55:58;24.30;53.40
38746;DHT22;24488;0.000;0.000;2022-07-24T05:58:24;24.30;53.30
38746;DHT22;24488;0.000;0.000;2022-07-24T06:00:49;24.30;53.30
38746;DHT22;24488;0.000;0.000;2022-07-24T06:03:15;24.30;53.30
38746;DHT22;24488;0.000;0.000;2022-07-24T06:05:40;24.30;53.30
38746;DHT22;24488;0.000;0.000;2022-07-24T06:08:06;24.30;53.30
38746;DHT22;24488;0.000;0.000;2022-07-24T06:10:32;24.30;53.30
38746;DHT22;24488;0.000;0.000;2022-07-24T06:12:57;24.30;53.30
38746;DHT22;24488;0.000;0.000;2022-07-24T06:15:23;24.30;53.30
38746;DHT22;24488;0.000;0.000;2022-07-24T06:17:49;24.30;53.40
38746;DHT22;24488;0.000;0.000;2022-07-24T06:20:15;24.30;53.30
38746;DHT22;24488;0.000;0.000;2022-07-24T06:22:41;24.30;53.30
38746;DHT22;24488;0.000;0.000;2022-07-24T06:25:07;24.30;53.30
38746;DHT22;24488;0.000;0.000;2022-07-24T06:27:33;24.30;53.30
38746;DHT22;24488;0.000;0.000;2022-07-24T06:29:59;24.30;53.30
38746;DHT22;24488;0.000;0.000;2022-07-24T06:32:24;24.30;53.30
38746;DHT22;24488;0.000;0.000;2022-07-24T06:34:50;24.30;53.30
38746;DHT22;24488;0.000;0.000;2022-07-24T06:37:16;24.30;53.30
38746;DHT22;24488;0.000;0.000;2022-07-24T06:39:41;24.30;53.30
38746;DHT22;24488;0.000;0.000;2022-07-24T06:42:07;24.30;53.30
38746;DHT22;24488;0.000;0.000;2022-07-24T06:44:33;24.30;53.30
38746;DHT22;24488;0.000;0.000;2022-07-24T06:47:01;24.30;53.30
38746;DHT22;24488;0.000;0.000;2022-07-24T06:49:27;24.30;53.30
38746;DHT22;24488;0.000;0.000;2022-07-24T06:51:52;24.30;53.30
38746;DHT22;24488;0.000;0.000;2022-07-24T06:54:18;24.30;53.30
38746;DHT22;24488;0.000;0.000;2022-07-24T06:56:43;24.30;53.30
38746;DHT22;24488;0.000;0.000;2022-07-24T06:59:09;24.30;53.30
38746;DHT22;24488;0.000;0.000;2022-07-24T07:01:34;24.30;53.30
38746;DHT22;24488;0.000;0.000;2022-07-24T07:04:00;24.30;53.30
38746;DHT22;24488;0.000;0.000;2022-07-24T07:06:26;24.30;53.30
38746;DHT22;24488;0.000;0.000;2022-07-24T07:08:52;24.30;53.30
38746;DHT22;24488;0.000;0.000;2022-07-24T07:11:17;24.30;53.30
38746;DHT22;24488;0.000;0.000;2022-07-24T07:13:43;24.30;53.30
38746;DHT22;24488;0.000;0.000;2022-07-24T07:16:08;24.30;53.30
38746;DHT22;24488;0.000;0.000;2022-07-24T07:18:34;24.30;53.30
38746;DHT22;24488;0.000;0.000;2022-07-24T07:21:02;24.30;53.30
38746;DHT22;24488;0.000;0.000;2022-07-24T07:23:28;24.30;53.30
38746;DHT22;24488;0.000;0.000;2022-07-24T07:25:53;24.30;53.30
38746;DHT22;24488;0.000;0.000;2022-07-24T07:28:19;24.30;53.30
38746;DHT22;24488;0.000;0.000;2022-07-24T07:30:45;24.30;53.30
38746;DHT22;24488;0.000;0.000;2022-07-24T07:33:11;24.30;53.30
38746;DHT22;24488;0.000;0.000;2022-07-24T07:35:36;24.30;53.30
38746;DHT22;24488;0.000;0.000;2022-07-24T07:38:02;24.30;53.30
38746;DHT22;24488;0.000;0.000;2022-07-24T07:40:28;24.30;53.30
38746;DHT22;24488;0.000;0.000;2022-07-24T07:42:53;24.30;53.30
38746;DHT22;24488;0.000;0.000;2022-07-24T07:45:19;24.30;53.30
38746;DHT22;24488;0.000;0.000;2022-07-24T07:47:44;24.30;53.30
38746;DHT22;24488;0.000;0.000;2022-07-24T07:50:11;24.30;53.30
38746;DHT22;24488;0.000;0.000;2022-07-24T07:52:37;24.30;53.30
38746;DHT22;24488;0.000;0.000;2022-07-24T07:55:03;24.30;53.30
38746;DHT22;24488;0.000;0.000;2022-07-24T07:57:29;24.30;53.30
38746;DHT22;24488;0.000;0.000;2022-07-24T07:59:55;24.30;53.30
38746;DHT22;24488;0.000;0.000;2022-07-24T08:02:21;24.30;53.30
38746;DHT22;24488;0.000;0.000;2022-07-24T08:04:46;24.30;53.20
38746;DHT22;24488;0.000;0.000;2022-07-24T08:07:12;24.30;53.20
38746;DHT22;24488;0.000;0.000;2022-07-24T08:09:37;24.30;53.20
38746;DHT22;24488;0.000;0.000;2022-07-24T08:12:03;24.30;53.20
38746;DHT22;24488;0.000;0.000;2022-07-24T08:14:29;24.30;53.30
38746;DHT22;24488;0.000;0.000;2022-07-24T08:16:55;24.30;53.20
38746;DHT22;24488;0.000;0.000;2022-07-24T08:19:21;24.30;53.20
38746;DHT22;24488;0.000;0.000;2022-07-24T08:21:47;24.30;53.20
38746;DHT22;24488;0.000;0.000;2022-07-24T08:24:12;24.30;53.20
38746;DHT22;24488;0.000;0.000;2022-07-24T08:26:38;24.30;53.20
38746;DHT22;24488;0.000;0.000;2022-07-24T08:29:04;24.30;53.20
38746;DHT22;24488;0.000;0.000;2022-07-24T08:31:29;24.30;53.20
38746;DHT22;24488;0.000;0.000;2022-07-24T08:33:55;24.30;53.20
38746;DHT22;24488;0.000;0.000;2022-07-24T08:36:20;24.30;53.30
38746;DHT22;24488;0.000;0.000;2022-07-24T08:38:47;24.20;53.20
38746;DHT22;24488;0.000;0.000;2022-07-24T08:41:12;24.30;53.20
38746;DHT22;24488;0.000;0.000;2022-07-24T08:43:38;24.30;53.20
38746;DHT22;24488;0.000;0.000;2022-07-24T08:46:04;24.20;53.20
38746;DHT22;24488;0.000;0.000;2022-07-24T08:48:32;24.30;53.20
38746;DHT22;24488;0.000;0.000;2022-07-24T08:50:58;24.30;53.20
38746;DHT22;24488;0.000;0.000;2022-07-24T08:53:24;24.30;53.20
38746;DHT22;24488;0.000;0.000;2022-07-24T08:55:49;24.30;53.20
38746;DHT22;24488;0.000;0.000;2022-07-24T08:58:15;24.30;53.20
38746;DHT22;24488;0.000;0.000;2022-07-24T09:00:41;24.30;53.30
38746;DHT22;24488;0.000;0.000;2022-07-24T09:03:06;24.30;53.20
38746;DHT22;24488;0.000;0.000;2022-07-24T09:05:32;24.30;53.20
38746;DHT22;24488;0.000;0.000;2022-07-24T09:08:07;24.30;53.20
38746;DHT22;24488;0.000;0.000;2022-07-24T09:10:36;24.30;53.20
38746;DHT22;24488;0.000;0.000;2022-07-24T09:13:12;24.30;53.20
38746;DHT22;24488;0.000;0.000;2022-07-24T09:15:43;24.30;53.20
38746;DHT22;24488;0.000;0.000;2022-07-24T09:18:10;24.30;53.20
38746;DHT22;24488;0.000;0.000;2022-07-24T09:20:50;24.30;53.20
38746;DHT22;24488;0.000;0.000;2022-07-24T09:23:18;24.30;53.20
38746;DHT22;24488;0.000;0.000;2022-07-24T09:25:48;24.30;53.20
38746;DHT22;24488;0.000;0.000;2022-07-24T09:28:16;24.30;53.20
38746;DHT22;24488;0.000;0.000;2022-07-24T09:30:42;24.30;53.20
38746;DHT22;24488;0.000;0.000;2022-07-24T09:33:18;24.30;53.20
38746;DHT22;24488;0.000;0.000;2022-07-24T09:35:55;24.30;53.20
38746;DHT22;24488;0.000;0.000;2022-07-24T09:38:22;24.30;53.20
38746;DHT22;24488;0.000;0.000;2022-07-24T09:40:52;24.30;53.20
38746;DHT22;24488;0.000;0.000;2022-07-24T09:43:21;24.30;53.20
38746;DHT22;24488;0.000;0.000;2022-07-24T09:48:17;24.30;53.20
38746;DHT22;24488;0.000;0.000;2022-07-24T09:50:50;24.30;53.20
38746;DHT22;24488;0.000;0.000;2022-07-24T09:53:20;24.30;53.20
38746;DHT22;24488;0.000;0.000;2022-07-24T09:56:00;24.30;53.30
38746;DHT22;24488;0.000;0.000;2022-07-24T09:58:28;24.30;53.20
38746;DHT22;24488;0.000;0.000;2022-07-24T10:00:55;24.40;53.30
38746;DHT22;24488;0.000;0.000;2022-07-24T10:03:23;24.30;53.20
38746;DHT22;24488;0.000;0.000;2022-07-24T10:05:50;24.30;53.20
38746;DHT22;24488;0.000;0.000;2022-07-24T10:08:19;24.30;53.20
38746;DHT22;24488;0.000;0.000;2022-07-24T10:10:46;24.30;53.20
38746;DHT22;24488;0.000;0.000;2022-07-24T10:13:14;24.30;53.20
38746;DHT22;24488;0.000;0.000;2022-07-24T10:15:48;24.30;53.20
38746;DHT22;24488;0.000;0.000;2022-07-24T10:18:17;24.30;53.20
38746;DHT22;24488;0.000;0.000;2022-07-24T10:20:45;24.30;53.20
38746;DHT22;24488;0.000;0.000;2022-07-24T10:23:21;24.30;53.20
38746;DHT22;24488;0.000;0.000;2022-07-24T10:25:52;24.30;52.70
38746;DHT22;24488;0.000;0.000;2022-07-24T10:28:27;24.30;53.20
38746;DHT22;24488;0.000;0.000;2022-07-24T10:31:03;24.30;53.10
38746;DHT22;24488;0.000;0.000;2022-07-24T10:33:29;24.30;53.10
38746;DHT22;24488;0.000;0.000;2022-07-24T10:35:55;24.30;53.10
38746;DHT22;24488;0.000;0.000;2022-07-24T10:38:28;24.30;53.10
38746;DHT22;24488;0.000;0.000;2022-07-24T10:40:55;24.30;53.10
38746;DHT22;24488;0.000;0.000;2022-07-24T10:43:28;24.30;53.20
38746;DHT22;24488;0.000;0.000;2022-07-24T10:53:23;24.30;53.10
38746;DHT22;24488;0.000;0.000;2022-07-24T10:55:49;24.30;53.20
38746;DHT22;24488;0.000;0.000;2022-07-24T10:58:14;24.30;53.20
38746;DHT22;24488;0.000;0.000;2022-07-24T11:00:44;24.30;53.20
38746;DHT22;24488;0.000;0.000;2022-07-24T11:03:18;24.30;53.20
38746;DHT22;24488;0.000;0.000;2022-07-24T11:08:36;24.30;53.20
38746;DHT22;24488;0.000;0.000;2022-07-24T11:11:06;24.30;53.20
38746;DHT22;24488;0.000;0.000;2022-07-24T11:21:03;24.30;53.20
38746;DHT22;24488;0.000;0.000;2022-07-24T11:23:29;24.30;53.20
38746;DHT22;24488;0.000;0.000;2022-07-24T11:29:11;24.30;53.20
38746;DHT22;24488;0.000;0.000;2022-07-24T11:31:54;24.30;53.20
38746;DHT22;24488;0.000;0.000;2022-07-24T11:34:21;24.30;53.10
38746;DHT22;24488;0.000;0.000;2022-07-24T11:36:48;24.30;53.10
38746;DHT22;24488;0.000;0.000;2022-07-24T11:39:16;24.30;53.20
38746;DHT22;24488;0.000;0.000;2022-07-24T11:41:55;24.30;53.10
38746;DHT22;24488;0.000;0.000;2022-07-24T11:44:28;24.30;53.10
38746;DHT22;24488;0.000;0.000;2022-07-24T11:49:55;24.30;53.10
38746;DHT22;24488;0.000;0.000;2022-07-24T11:52:28;24.30;53.10
38746;DHT22;24488;0.000;0.000;2022-07-24T11:55:04;24.30;53.10
38746;DHT22;24488;0.000;0.000;2022-07-24T11:57:33;24.30;53.10
38746;DHT22;24488;0.000;0.000;2022-07-24T12:00:00;24.30;53.20
38746;DHT22;24488;0.000;0.000;2022-07-24T12:02:26;24.30;53.10
38746;DHT22;24488;0.000;0.000;2022-07-24T12:04:52;24.30;53.10
38746;DHT22;24488;0.000;0.000;2022-07-24T12:07:19;24.40;53.20
38746;DHT22;24488;0.000;0.000;2022-07-24T12:09:54;24.30;53.10
38746;DHT22;24488;0.000;0.000;2022-07-24T12:14:52;24.30;53.10
38746;DHT22;24488;0.000;0.000;2022-07-24T12:17:30;24.30;53.10
38746;DHT22;24488;0.000;0.000;2022-07-24T12:19:59;24.30;53.10
38746;DHT22;24488;0.000;0.000;2022-07-24T12:22:25;24.30;53.10
38746;DHT22;24488;0.000;0.000;2022-07-24T12:24:52;24.30;53.10
38746;DHT22;24488;0.000;0.000;2022-07-24T12:27:41;24.30;53.10
38746;DHT22;24488;0.000;0.000;2022-07-24T12:32:53;24.30;53.10
38746;DHT22;24488;0.000;0.000;2022-07-24T12:35:19;24.30;53.10
38746;DHT22;24488;0.000;0.000;2022-07-24T12:37:45;24.30;53.10
38746;DHT22;24488;0.000;0.000;2022-07-24T12:40:21;24.30;53.10
38746;DHT22;24488;0.000;0.000;2022-07-24T12:43:01;24.30;53.10
38746;DHT22;24488;0.000;0.000;2022-07-24T12:45:29;24.30;53.10
38746;DHT22;24488;0.000;0.000;2022-07-24T12:53:34;24.30;53.10
38746;DHT22;24488;0.000;0.000;2022-07-24T12:56:06;24.30;53.10
38746;DHT22;24488;0.000;0.000;2022-07-24T13:01:25;24.30;53.00
38746;DHT22;24488;0.000;0.000;2022-07-24T13:03:56;24.30;53.00
38746;DHT22;24488;0.000;0.000;2022-07-24T13:09:21;24.30;53.00
38746;DHT22;24488;0.000;0.000;2022-07-24T13:11:48;24.30;53.00
38746;DHT22;24488;0.000;0.000;2022-07-24T13:14:16;24.30;53.00
38746;DHT22;24488;0.000;0.000;2022-07-24T13:16:42;24.40;53.10
38746;DHT22;24488;0.000;0.000;2022-07-24T13:19:09;24.30;53.00
38746;DHT22;24488;0.000;0.000;2022-07-24T13:21:35;24.30;53.00
38746;DHT22;24488;0.000;0.000;2022-07-24T13:24:02;24.30;53.00
38746;DHT22;24488;0.000;0.000;2022-07-24T13:26:28;24.30;53.00
38746;DHT22;24488;0.000;0.000;2022-07-24T13:28:54;24.30;53.00
38746;DHT22;24488;0.000;0.000;2022-07-24T13:31:20;24.30;53.00
38746;DHT22;24488;0.000;0.000;2022-07-24T13:33:46;24.30;53.00
38746;DHT22;24488;0.000;0.000;2022-07-24T13:36:12;24.30;53.00
38746;DHT22;24488;0.000;0.000;2022-07-24T13:38:38;24.30;53.00
38746;DHT22;24488;0.000;0.000;2022-07-24T13:41:04;24.30;53.00
38746;DHT22;24488;0.000;0.000;2022-07-24T13:43:30;24.30;53.00
38746;DHT22;24488;0.000;0.000;2022-07-24T13:45:55;24.30;53.00
38746;DHT22;24488;0.000;0.000;2022-07-24T13:48:21;24.30;53.00
38746;DHT22;24488;0.000;0.000;2022-07-24T13:50:46;24.30;53.00
38746;DHT22;24488;0.000;0.000;2022-07-24T13:53:12;24.30;53.00
38746;DHT22;24488;0.000;0.000;2022-07-24T13:55:37;24.30;53.00
38746;DHT22;24488;0.000;0.000;2022-07-24T13:58:03;24.30;53.00
38746;DHT22;24488;0.000;0.000;2022-07-24T14:00:29;24.30;53.00
38746;DHT22;24488;0.000;0.000;2022-07-24T14:02:54;24.30;53.00
38746;DHT22;24488;0.000;0.000;2022-07-24T14:05:23;24.30;53.00
38746;DHT22;24488;0.000;0.000;2022-07-24T14:07:52;24.30;53.00
38746;DHT22;24488;0.000;0.000;2022-07-24T14:10:21;24.30;53.00
38746;DHT22;24488;0.000;0.000;2022-07-24T14:12:47;24.30;53.00
38746;DHT22;24488;0.000;0.000;2022-07-24T14:15:13;24.30;53.00
38746;DHT22;24488;0.000;0.000;2022-07-24T14:17:43;24.40;53.60
38746;DHT22;24488;0.000;0.000;2022-07-24T14:20:10;24.30;53.00
38746;DHT22;24488;0.000;0.000;2022-07-24T14:22:37;24.30;53.00
38746;DHT22;24488;0.000;0.000;2022-07-24T14:25:04;24.30;53.00
38746;DHT22;24488;0.000;0.000;2022-07-24T14:27:30;24.30;53.00
38746;DHT22;24488;0.000;0.000;2022-07-24T14:29:56;24.30;53.00
38746;DHT22;24488;0.000;0.000;2022-07-24T14:32:21;24.30;53.00
38746;DHT22;24488;0.000;0.000;2022-07-24T14:34:47;24.30;53.00
38746;DHT22;24488;0.000;0.000;2022-07-24T14:37:13;24.30;53.00
38746;DHT22;24488;0.000;0.000;2022-07-24T14:39:38;24.30;53.00
38746;DHT22;24488;0.000;0.000;2022-07-24T14:42:04;24.30;53.00
38746;DHT22;24488;0.000;0.000;2022-07-24T14:44:30;24.30;53.00
38746;DHT22;24488;0.000;0.000;2022-07-24T14:46:55;24.40;53.00
38746;DHT22;24488;0.000;0.000;2022-07-24T14:49:21;24.30;53.00
38746;DHT22;24488;0.000;0.000;2022-07-24T14:51:47;24.30;53.00
38746;DHT22;24488;0.000;0.000;2022-07-24T14:54:13;24.30;53.00
38746;DHT22;24488;0.000;0.000;2022-07-24T14:56:39;24.30;53.00
38746;DHT22;24488;0.000;0.000;2022-07-24T14:59:05;24.30;53.00
38746;DHT22;24488;0.000;0.000;2022-07-24T15:01:31;24.30;53.00
38746;DHT22;24488;0.000;0.000;2022-07-24T15:03:57;24.30;53.00
38746;DHT22;24488;0.000;0.000;2022-07-24T15:06:22;24.30;53.00
38746;DHT22;24488;0.000;0.000;2022-07-24T15:08:48;24.30;53.00
38746;DHT22;24488;0.000;0.000;2022-07-24T15:11:13;24.30;53.00
38746;DHT22;24488;0.000;0.000;2022-07-24T15:13:39;24.30;53.00
38746;DHT22;24488;0.000;0.000;2022-07-24T15:16:08;24.30;52.90
38746;DHT22;24488;0.000;0.000;2022-07-24T15:18:34;24.30;53.00
38746;DHT22;24488;0.000;0.000;2022-07-24T15:21:00;24.30;52.90
38746;DHT22;24488;0.000;0.000;2022-07-24T15:23:25;24.30;52.90
38746;DHT22;24488;0.000;0.000;2022-07-24T15:25:51;24.30;52.90
38746;DHT22;24488;0.000;0.000;2022-07-24T15:28:18;24.30;53.00
38746;DHT22;24488;0.000;0.000;2022-07-24T15:30:44;24.30;53.00
38746;DHT22;24488;0.000;0.000;2022-07-24T15:33:10;24.30;52.90
38746;DHT22;24488;0.000;0.000;2022-07-24T15:35:35;24.30;52.90
38746;DHT22;24488;0.000;0.000;2022-07-24T15:38:01;24.30;52.90
38746;DHT22;24488;0.000;0.000;2022-07-24T15:40:26;24.40;52.90
38746;DHT22;24488;0.000;0.000;2022-07-24T15:42:55;24.30;52.90
38746;DHT22;24488;0.000;0.000;2022-07-24T15:45:21;24.30;52.90
38746;DHT22;24488;0.000;0.000;2022-07-24T15:47:47;24.30;52.90
38746;DHT22;24488;0.000;0.000;2022-07-24T15:50:13;24.40;52.90
38746;DHT22;24488;0.000;0.000;2022-07-24T15:52:39;24.30;52.90
38746;DHT22;24488;0.000;0.000;2022-07-24T15:55:05;24.30;52.90
38746;DHT22;24488;0.000;0.000;2022-07-24T15:57:31;24.30;52.90
38746;DHT22;24488;0.000;0.000;2022-07-24T15:59:56;24.30;52.90
38746;DHT22;24488;0.000;0.000;2022-07-24T16:02:22;24.30;52.90
38746;DHT22;24488;0.000;0.000;2022-07-24T16:04:48;24.30;52.90
38746;DHT22;24488;0.000;0.000;2022-07-24T16:07:14;24.30;52.90
38746;DHT22;24488;0.000;0.000;2022-07-24T16:09:41;24.30;52.90
38746;DHT22;24488;0.000;0.000;2022-07-24T16:12:08;24.30;52.90
38746;DHT22;24488;0.000;0.000;2022-07-24T16:14:34;24.40;52.90
38746;DHT22;24488;0.000;0.000;2022-07-24T16:17:00;24.40;52.90
38746;DHT22;24488;0.000;0.000;2022-07-24T16:19:25;24.30;52.90
38746;DHT22;24488;0.000;0.000;2022-07-24T16:21:51;24.30;52.90
38746;DHT22;24488;0.000;0.000;2022-07-24T16:24:17;24.40;52.90